createdAt,value
2018-05-18T00:00:14.912Z,10.44
2018-05-18T00:02:42.399Z,10.42
2018-05-18T00:05:09.883Z,10.42
2018-05-18T00:07:37.364Z,10.39
2018-05-18T00:10:04.960Z,10.39
2018-05-18T00:12:32.450Z,10.42
2018-05-18T00:14:59.980Z,10.37
2018-05-18T00:17:27.469Z,10.33
2018-05-18T00:19:54.966Z,10.32
2018-05-18T00:22:22.454Z,10.27
2018-05-18T00:24:49.992Z,10.23
2018-05-18T00:27:17.500Z,10.21
2018-05-18T00:29:44.996Z,10.21
2018-05-18T00:32:12.484Z,10.17
2018-05-18T00:34:40.101Z,10.19
2018-05-18T00:37:07.586Z,10.26
2018-05-18T00:39:35.068Z,10.35
2018-05-18T00:42:02.577Z,10.39
2018-05-18T00:44:30.054Z,10.38
2018-05-18T00:46:57.545Z,10.41
2018-05-18T00:49:25.026Z,10.39
2018-05-18T00:51:52.536Z,10.36
2018-05-18T00:54:20.013Z,10.36
2018-05-18T00:56:47.529Z,10.28
2018-05-18T00:59:15.014Z,10.22
2018-05-18T01:01:42.497Z,10.16
2018-05-18T01:04:10.003Z,10.15
2018-05-18T01:06:37.598Z,10.14
2018-05-18T01:09:05.830Z,10.19
2018-05-18T01:11:33.311Z,10.18
2018-05-18T01:14:00.826Z,10.14
2018-05-18T01:16:28.331Z,10.07
2018-05-18T01:18:55.828Z,10.08
2018-05-18T01:21:23.299Z,10.01
2018-05-18T01:23:50.791Z,9.95
2018-05-18T01:26:18.378Z,9.94
2018-05-18T01:28:45.904Z,10.01
2018-05-18T01:31:13.492Z,10.04
2018-05-18T01:33:41.166Z,10.03
2018-05-18T01:36:08.656Z,10.03
2018-05-18T01:38:36.145Z,10.05
2018-05-18T01:41:03.632Z,10.01
2018-05-18T01:43:31.162Z,10.00
2018-05-18T01:45:58.705Z,9.91
2018-05-18T01:48:26.194Z,9.89
2018-05-18T01:50:53.682Z,9.88
2018-05-18T01:53:21.171Z,9.91
2018-05-18T01:55:48.655Z,9.90
2018-05-18T01:58:16.155Z,9.86
2018-05-18T02:00:43.680Z,9.79
2018-05-18T02:03:11.160Z,9.70
2018-05-18T02:05:38.660Z,9.62
2018-05-18T02:08:06.162Z,9.55
2018-05-18T02:10:33.676Z,9.47
2018-05-18T02:13:01.159Z,9.31
2018-05-18T02:15:28.643Z,9.34
2018-05-18T02:17:56.121Z,9.34
2018-05-18T02:20:23.652Z,9.30
2018-05-18T02:22:51.220Z,9.33
2018-05-18T02:25:19.524Z,9.25
2018-05-18T02:27:47.020Z,9.19
2018-05-18T02:30:14.518Z,9.11
2018-05-18T02:32:42.017Z,9.03
2018-05-18T02:35:09.507Z,9.00
2018-05-18T02:37:37.009Z,8.93
2018-05-18T02:40:04.495Z,8.87
2018-05-18T02:42:32.001Z,8.83
2018-05-18T02:44:59.489Z,8.79
2018-05-18T02:47:26.982Z,8.76
2018-05-18T02:49:54.471Z,8.70
2018-05-18T02:52:21.968Z,8.69
2018-05-18T02:54:49.519Z,8.62
2018-05-18T02:57:16.988Z,8.60
2018-05-18T02:59:44.475Z,8.57
2018-05-18T03:02:11.959Z,8.54
2018-05-18T03:04:39.468Z,8.52
2018-05-18T03:07:06.989Z,8.48
2018-05-18T03:09:34.554Z,8.44
2018-05-18T03:12:02.030Z,8.39
2018-05-18T03:14:29.535Z,8.36
2018-05-18T03:16:57.029Z,8.29
2018-05-18T03:19:24.535Z,8.29
2018-05-18T03:21:52.033Z,8.22
2018-05-18T03:24:19.513Z,8.21
2018-05-18T03:26:47.008Z,8.21
2018-05-18T03:29:14.499Z,8.16
2018-05-18T03:31:42.001Z,8.14
2018-05-18T03:34:09.466Z,8.12
2018-05-18T03:36:36.981Z,8.13
2018-05-18T03:39:04.537Z,8.13
2018-05-18T03:41:32.021Z,8.11
2018-05-18T03:43:59.535Z,8.10
2018-05-18T03:46:27.015Z,8.16
2018-05-18T03:48:54.527Z,8.18
2018-05-18T03:51:22.104Z,8.11
2018-05-18T03:53:49.624Z,8.07
2018-05-18T03:56:17.122Z,8.05
2018-05-18T03:58:44.597Z,8.06
2018-05-18T04:01:24.007Z,8.04
2018-05-18T04:04:03.370Z,7.97
2018-05-18T04:09:29.916Z,7.98
2018-05-18T04:11:57.432Z,7.97
2018-05-18T04:14:24.899Z,7.96
2018-05-18T04:16:52.374Z,7.98
2018-05-18T04:19:19.857Z,7.97
2018-05-18T04:21:47.333Z,8.01
2018-05-18T04:24:14.815Z,8.07
2018-05-18T04:26:42.569Z,8.13
2018-05-18T04:29:10.061Z,8.15
2018-05-18T04:31:37.692Z,8.18
2018-05-18T04:34:05.114Z,8.21
2018-05-18T04:36:32.600Z,8.28
2018-05-18T04:39:00.088Z,8.29
2018-05-18T04:41:27.599Z,8.32
2018-05-18T04:43:55.079Z,8.41
2018-05-18T04:46:22.570Z,8.50
2018-05-18T04:48:50.145Z,8.64
2018-05-18T04:51:17.634Z,8.75
2018-05-18T04:53:45.437Z,8.86
2018-05-18T04:56:12.924Z,9.00
2018-05-18T04:58:40.501Z,9.07
2018-05-18T05:01:08.074Z,9.19
2018-05-18T05:03:35.588Z,9.32
2018-05-18T05:06:03.077Z,9.37
2018-05-18T05:08:30.691Z,9.43
2018-05-18T05:10:58.209Z,9.52
2018-05-18T05:13:25.790Z,9.58
2018-05-18T05:15:53.280Z,9.69
2018-05-18T05:18:20.788Z,9.76
2018-05-18T05:20:48.383Z,9.89
2018-05-18T05:23:15.881Z,10.02
2018-05-18T05:25:43.372Z,10.05
2018-05-18T05:28:10.851Z,10.15
2018-05-18T05:30:38.349Z,10.28
2018-05-18T05:33:05.833Z,10.41
2018-05-18T05:35:33.385Z,10.49
2018-05-18T05:38:02.636Z,10.59
2018-05-18T05:40:31.299Z,10.65
2018-05-18T05:43:00.411Z,10.75
2018-05-18T05:45:27.946Z,10.80
2018-05-18T05:47:55.457Z,10.88
2018-05-18T05:50:22.947Z,10.99
2018-05-18T05:52:50.466Z,11.11
2018-05-18T05:55:17.972Z,11.24
2018-05-18T05:57:45.483Z,11.34
2018-05-18T06:00:12.973Z,11.52
2018-05-18T06:02:40.485Z,11.53
2018-05-18T06:05:07.972Z,11.58
2018-05-18T06:07:35.498Z,11.68
2018-05-18T06:10:04.327Z,11.82
2018-05-18T06:12:31.852Z,11.95
2018-05-18T06:14:59.435Z,11.87
2018-05-18T06:17:26.925Z,12.02
2018-05-18T06:19:54.425Z,12.18
2018-05-18T06:22:21.917Z,12.15
2018-05-18T06:24:49.425Z,12.22
2018-05-18T06:27:16.964Z,12.36
2018-05-18T06:29:44.537Z,12.22
2018-05-18T06:32:12.034Z,12.17
2018-05-18T06:34:39.629Z,12.37
2018-05-18T06:37:07.064Z,12.53
2018-05-18T06:39:34.556Z,12.73
2018-05-18T06:42:02.040Z,12.81
2018-05-18T06:44:29.528Z,12.97
2018-05-18T06:46:57.136Z,13.00
2018-05-18T06:49:24.620Z,13.36
2018-05-18T06:51:52.182Z,13.53
2018-05-18T06:54:19.709Z,13.38
2018-05-18T06:56:47.229Z,13.53
2018-05-18T06:59:14.757Z,13.71
2018-05-18T07:01:42.258Z,13.77
2018-05-18T07:04:09.781Z,13.95
2018-05-18T07:06:37.252Z,13.99
2018-05-18T07:09:05.700Z,13.98
2018-05-18T07:11:33.194Z,13.89
2018-05-18T07:14:00.703Z,13.92
2018-05-18T07:16:28.560Z,14.22
2018-05-18T07:18:56.075Z,14.42
2018-05-18T07:21:23.839Z,14.59
2018-05-18T07:23:51.436Z,14.74
2018-05-18T07:26:19.861Z,14.84
2018-05-18T07:28:47.377Z,14.74
2018-05-18T07:31:14.928Z,14.94
2018-05-18T07:33:42.525Z,14.92
2018-05-18T07:36:10.069Z,14.91
2018-05-18T07:38:37.532Z,14.88
2018-05-18T07:41:05.202Z,15.25
2018-05-18T07:43:32.753Z,15.40
2018-05-18T07:46:00.256Z,15.85
2018-05-18T07:48:27.738Z,15.95
2018-05-18T07:50:55.230Z,16.06
2018-05-18T07:53:22.736Z,16.32
2018-05-18T07:55:50.249Z,16.47
2018-05-18T07:58:17.774Z,16.51
2018-05-18T08:00:45.344Z,16.62
2018-05-18T08:03:12.826Z,16.80
2018-05-18T08:05:40.343Z,16.47
2018-05-18T08:08:07.945Z,16.46
2018-05-18T08:10:35.508Z,16.69
2018-05-18T08:13:08.697Z,16.72
2018-05-18T08:19:52.167Z,16.82
2018-05-18T08:22:19.669Z,16.84
2018-05-18T08:24:47.224Z,17.01
2018-05-18T08:27:23.703Z,16.99
2018-05-18T08:29:51.199Z,17.08
2018-05-18T08:32:18.697Z,17.06
2018-05-18T08:34:46.226Z,17.05
2018-05-18T08:37:13.776Z,17.12
2018-05-18T08:39:41.483Z,17.25
2018-05-18T08:42:09.047Z,17.29
2018-05-18T08:44:36.566Z,17.21
2018-05-18T08:47:04.056Z,17.31
2018-05-18T08:49:31.605Z,17.25
2018-05-18T08:51:59.140Z,17.46
2018-05-18T08:54:26.692Z,17.40
2018-05-18T08:56:54.256Z,17.34
2018-05-18T08:59:21.743Z,17.49
2018-05-18T09:01:49.280Z,17.71
2018-05-18T09:04:16.772Z,17.79
2018-05-18T09:06:44.245Z,17.88
2018-05-18T09:09:11.740Z,18.03
2018-05-18T09:11:39.264Z,18.16
2018-05-18T09:14:06.841Z,18.10
2018-05-18T09:16:34.315Z,17.98
2018-05-18T09:19:01.789Z,18.16
2018-05-18T09:21:29.281Z,18.08
2018-05-18T09:23:56.794Z,17.90
2018-05-18T09:26:24.381Z,17.81
2018-05-18T09:28:51.829Z,17.89
2018-05-18T09:31:19.334Z,18.13
2018-05-18T09:33:46.836Z,18.38
2018-05-18T09:36:14.355Z,18.75
2018-05-18T09:38:41.858Z,18.94
2018-05-18T09:41:09.373Z,19.06
2018-05-18T09:43:36.853Z,19.06
2018-05-18T09:46:04.359Z,18.84
2018-05-18T09:48:31.885Z,18.82
2018-05-18T09:50:59.406Z,18.99
2018-05-18T09:53:26.917Z,18.63
2018-05-18T09:55:54.455Z,18.38
2018-05-18T09:58:21.941Z,18.51
2018-05-18T10:00:49.458Z,18.66
2018-05-18T10:03:16.958Z,18.77
2018-05-18T10:05:44.585Z,18.70
2018-05-18T10:08:12.085Z,18.49
2018-05-18T10:10:39.636Z,18.61
2018-05-18T10:13:07.156Z,18.78
2018-05-18T10:15:34.655Z,19.06
2018-05-18T10:18:02.179Z,18.85
2018-05-18T10:20:29.688Z,18.76
2018-05-18T10:22:57.181Z,19.10
2018-05-18T10:25:26.541Z,19.43
2018-05-18T10:27:54.078Z,19.82
2018-05-18T10:30:31.434Z,20.13
2018-05-18T10:32:58.922Z,20.53
2018-05-18T10:35:27.301Z,20.76
2018-05-18T10:37:54.854Z,20.63
2018-05-18T10:40:22.397Z,20.49
2018-05-18T10:42:49.964Z,20.37
2018-05-18T10:45:17.507Z,20.46
2018-05-18T10:47:44.994Z,19.92
2018-05-18T10:50:12.537Z,19.95
2018-05-18T10:52:40.078Z,19.59
2018-05-18T10:55:07.570Z,19.62
2018-05-18T10:57:35.072Z,19.96
2018-05-18T11:00:02.603Z,20.34
2018-05-18T11:02:31.497Z,20.38
2018-05-18T11:04:59.207Z,20.68
2018-05-18T11:07:26.718Z,21.06
2018-05-18T11:09:55.028Z,21.25
2018-05-18T11:12:22.627Z,20.72
2018-05-18T11:14:50.131Z,20.50
2018-05-18T11:17:17.624Z,20.12
2018-05-18T11:19:45.165Z,20.05
2018-05-18T11:22:12.675Z,20.04
2018-05-18T11:24:40.206Z,20.50
2018-05-18T11:27:07.698Z,21.02
2018-05-18T11:29:35.326Z,21.24
2018-05-18T11:32:02.813Z,21.19
2018-05-18T11:34:30.322Z,21.01
2018-05-18T11:36:57.850Z,21.15
2018-05-18T11:39:25.451Z,21.22
2018-05-18T11:41:52.980Z,21.38
2018-05-18T11:44:20.486Z,21.66
2018-05-18T11:46:47.980Z,22.04
2018-05-18T11:49:15.501Z,22.44
2018-05-18T11:51:43.162Z,23.06
2018-05-18T11:54:10.640Z,23.36
2018-05-18T11:56:38.151Z,23.53
2018-05-18T11:59:05.828Z,23.21
2018-05-18T12:01:33.372Z,23.87
2018-05-18T12:04:01.389Z,24.64
2018-05-18T12:06:28.926Z,24.98
2018-05-18T12:08:56.502Z,26.05
2018-05-18T12:11:23.983Z,26.18
2018-05-18T12:13:51.486Z,27.25
2018-05-18T12:16:18.995Z,27.51
2018-05-18T12:18:46.516Z,29.28
2018-05-18T12:21:14.114Z,30.81
2018-05-18T12:23:41.700Z,31.92
2018-05-18T12:26:09.398Z,31.97
2018-05-18T12:28:36.914Z,32.73
2018-05-18T12:31:04.446Z,33.55
2018-05-18T12:33:31.999Z,35.08
2018-05-18T12:35:59.529Z,35.47
2018-05-18T12:38:27.092Z,36.36
2018-05-18T12:40:54.535Z,35.22
2018-05-18T12:43:22.036Z,33.70
2018-05-18T12:45:49.521Z,33.88
2018-05-18T12:48:17.014Z,34.21
2018-05-18T12:50:44.672Z,33.75
2018-05-18T12:53:12.240Z,33.15
2018-05-18T12:55:39.733Z,34.83
2018-05-18T12:58:07.255Z,36.01
2018-05-18T13:00:36.877Z,37.46
2018-05-18T13:03:04.723Z,37.79
2018-05-18T13:05:33.527Z,38.09
2018-05-18T13:08:02.410Z,37.38
2018-05-18T13:10:30.040Z,37.38
2018-05-18T13:12:58.670Z,37.30
2018-05-18T13:15:27.550Z,36.37
2018-05-18T13:17:55.544Z,36.33
2018-05-18T13:20:26.520Z,35.47
2018-05-18T13:22:54.270Z,35.93
2018-05-18T13:25:22.097Z,34.15
2018-05-18T13:27:49.611Z,33.38
2018-05-18T13:30:17.118Z,34.02
2018-05-18T13:32:44.719Z,35.70
2018-05-18T13:35:12.337Z,35.95
2018-05-18T13:37:39.849Z,37.21
2018-05-18T13:40:07.439Z,37.65
2018-05-18T13:42:35.128Z,38.29
2018-05-18T13:45:02.812Z,39.41
2018-05-18T13:47:30.524Z,38.42
2018-05-18T13:49:58.200Z,37.60
2018-05-18T13:52:25.712Z,38.78
2018-05-18T13:54:53.530Z,38.46
2018-05-18T13:57:21.095Z,38.93
2018-05-18T13:59:48.824Z,37.39
2018-05-18T14:02:16.505Z,37.03
2018-05-18T14:04:44.071Z,37.69
2018-05-18T14:07:11.963Z,38.69
2018-05-18T14:09:40.325Z,39.89
2018-05-18T14:12:08.309Z,40.67
2018-05-18T14:14:36.768Z,40.13
2018-05-18T14:17:04.681Z,41.04
2018-05-18T14:19:32.504Z,40.66
2018-05-18T14:22:00.417Z,38.85
2018-05-18T14:24:29.058Z,39.02
2018-05-18T14:26:56.541Z,38.31
2018-05-18T14:29:24.217Z,38.58
2018-05-18T14:31:52.007Z,36.41
2018-05-18T14:34:20.608Z,37.14
2018-05-18T14:36:48.494Z,36.82
2018-05-18T14:39:16.324Z,36.34
2018-05-18T14:41:44.743Z,37.81
2018-05-18T14:44:12.300Z,37.61
2018-05-18T14:46:45.502Z,37.38
2018-05-18T14:49:13.332Z,38.13
2018-05-18T14:51:40.820Z,35.67
2018-05-18T14:54:08.349Z,35.66
2018-05-18T14:56:35.840Z,36.66
2018-05-18T14:59:03.385Z,36.01
2018-05-18T15:01:30.864Z,35.29
2018-05-18T15:03:58.371Z,35.33
2018-05-18T15:06:25.900Z,35.45
2018-05-18T15:08:53.895Z,37.63
2018-05-18T15:11:21.416Z,38.87
2018-05-18T15:13:48.891Z,38.32
2018-05-18T15:16:17.149Z,39.66
2018-05-18T15:18:44.732Z,38.55
2018-05-18T15:21:12.221Z,36.31
2018-05-18T15:23:39.730Z,36.33
2018-05-18T15:26:07.279Z,36.82
2018-05-18T15:28:34.871Z,36.11
2018-05-18T15:31:02.592Z,36.40
2018-05-18T15:33:30.396Z,35.93
2018-05-18T15:35:57.913Z,35.40
2018-05-18T15:38:25.407Z,35.55
2018-05-18T15:40:53.004Z,34.87
2018-05-18T15:43:21.693Z,34.10
2018-05-18T15:45:49.285Z,33.34
2018-05-18T15:48:16.976Z,33.64
2018-05-18T15:50:44.893Z,32.38
2018-05-18T15:53:12.463Z,32.70
2018-05-18T15:55:39.900Z,32.02
2018-05-18T15:58:07.409Z,32.98
2018-05-18T16:00:34.919Z,31.64
2018-05-18T16:03:02.423Z,32.82
2018-05-18T16:05:29.918Z,32.49
2018-05-18T16:07:57.521Z,32.23
2018-05-18T16:10:24.997Z,32.36
2018-05-18T16:12:52.613Z,33.43
2018-05-18T16:15:20.067Z,33.71
2018-05-18T16:17:47.559Z,32.39
2018-05-18T16:20:15.049Z,32.90
2018-05-18T16:22:42.541Z,33.22
2018-05-18T16:25:10.019Z,34.21
2018-05-18T16:27:37.532Z,34.33
2018-05-18T16:30:05.053Z,34.17
2018-05-18T16:32:32.660Z,33.02
2018-05-18T16:35:00.140Z,32.48
2018-05-18T16:37:27.639Z,32.64
2018-05-18T16:39:55.123Z,32.36
2018-05-18T16:42:22.597Z,32.55
2018-05-18T16:44:50.077Z,32.36
2018-05-18T16:47:17.589Z,30.90
2018-05-18T16:49:45.313Z,30.81
2018-05-18T16:52:13.195Z,30.88
2018-05-18T16:54:41.732Z,29.86
2018-05-18T16:57:09.432Z,29.89
2018-05-18T16:59:38.159Z,29.07
2018-05-18T17:02:05.729Z,29.36
2018-05-18T17:04:34.052Z,29.41
2018-05-18T17:07:01.606Z,28.96
2018-05-18T17:09:29.544Z,29.32
2018-05-18T17:11:57.035Z,29.38
2018-05-18T17:14:25.824Z,29.58
2018-05-18T17:16:53.992Z,29.32
2018-05-18T17:19:22.556Z,28.42
2018-05-18T17:21:50.613Z,27.83
2018-05-18T17:24:18.521Z,27.98
2018-05-18T17:26:46.063Z,27.66
2018-05-18T17:29:13.717Z,27.93
2018-05-18T17:31:41.963Z,27.53
2018-05-18T17:34:09.729Z,28.25
2018-05-18T17:36:37.634Z,27.71
2018-05-18T17:39:06.136Z,27.57
2018-05-18T17:41:33.878Z,27.29
2018-05-18T17:44:01.651Z,27.10
2018-05-18T17:46:29.825Z,26.91
2018-05-18T17:48:58.149Z,26.07
2018-05-18T17:51:25.757Z,24.89
2018-05-18T17:53:53.291Z,23.53
2018-05-18T17:56:20.789Z,22.89
2018-05-18T17:58:49.755Z,22.11
2018-05-18T18:01:17.880Z,21.59
2018-05-18T18:03:45.610Z,21.22
2018-05-18T18:06:13.474Z,20.75
2018-05-18T18:08:41.140Z,20.49
2018-05-18T18:11:08.660Z,20.25
2018-05-18T18:13:36.204Z,19.98
2018-05-18T18:16:03.684Z,20.05
2018-05-18T18:18:31.218Z,19.98
2018-05-18T18:20:58.890Z,19.84
2018-05-18T18:23:26.470Z,19.39
2018-05-18T18:25:54.151Z,19.28
2018-05-18T18:28:21.646Z,19.10
2018-05-18T18:30:50.056Z,18.98
2018-05-18T18:33:17.589Z,18.78
2018-05-18T18:35:45.084Z,18.55
2018-05-18T18:38:12.587Z,18.40
2018-05-18T18:40:40.067Z,18.22
2018-05-18T18:43:07.566Z,18.16
2018-05-18T18:45:35.057Z,18.03
2018-05-18T18:48:02.838Z,17.83
2018-05-18T18:50:30.325Z,17.73
2018-05-18T18:52:57.826Z,17.62
2018-05-18T18:55:25.360Z,17.54
2018-05-18T18:57:52.874Z,17.38
2018-05-18T19:00:20.386Z,17.26
2018-05-18T19:02:47.872Z,17.26
2018-05-18T19:05:15.380Z,17.13
2018-05-18T19:07:42.887Z,17.03
2018-05-18T19:10:10.401Z,16.90
2018-05-18T19:12:37.901Z,16.79
2018-05-18T19:15:05.411Z,16.70
2018-05-18T19:17:32.961Z,16.57
2018-05-18T19:20:00.527Z,16.55
2018-05-18T19:22:28.015Z,16.46
2018-05-18T19:24:55.497Z,16.39
2018-05-18T19:27:23.070Z,16.33
2018-05-18T19:29:50.842Z,16.25
2018-05-18T19:32:18.517Z,16.17
2018-05-18T19:34:46.126Z,16.08
2018-05-18T19:37:13.617Z,16.02
2018-05-18T19:39:41.134Z,15.87
2018-05-18T19:42:08.634Z,15.77
2018-05-18T19:44:36.125Z,15.75
2018-05-18T19:47:03.609Z,15.67
2018-05-18T19:49:31.135Z,15.67
2018-05-18T19:51:58.650Z,15.61
2018-05-18T19:54:26.175Z,15.57
2018-05-18T19:56:53.664Z,15.52
2018-05-18T19:59:21.175Z,15.43
2018-05-18T20:01:48.692Z,15.36
2018-05-18T20:04:16.200Z,15.27
2018-05-18T20:06:43.707Z,15.23
2018-05-18T20:09:11.220Z,15.13
2018-05-18T20:11:38.719Z,15.09
2018-05-18T20:14:06.241Z,15.05
2018-05-18T20:16:33.733Z,14.95
2018-05-18T20:19:01.239Z,14.93
2018-05-18T20:21:28.750Z,14.82
2018-05-18T20:23:56.255Z,14.78
2018-05-18T20:26:23.823Z,14.67
2018-05-18T20:28:51.323Z,14.60
2018-05-18T20:31:18.842Z,14.52
2018-05-18T20:33:46.364Z,14.47
2018-05-18T20:36:13.850Z,14.42
2018-05-18T20:38:41.343Z,14.38
2018-05-18T20:41:08.856Z,14.34
2018-05-18T20:43:36.369Z,14.28
2018-05-18T20:46:03.986Z,14.21
2018-05-18T20:48:31.473Z,14.20
2018-05-18T20:50:58.986Z,14.07
2018-05-18T20:53:26.484Z,13.95
2018-05-18T20:55:53.993Z,13.90
2018-05-18T20:58:21.507Z,13.85
2018-05-18T21:00:49.032Z,13.75
2018-05-18T21:03:16.606Z,13.76
2018-05-18T21:05:44.131Z,13.74
2018-05-18T21:08:11.638Z,13.69
2018-05-18T21:10:39.168Z,13.68
2018-05-18T21:13:06.681Z,13.69
2018-05-18T21:15:34.167Z,13.60
2018-05-18T21:18:01.653Z,13.59
2018-05-18T21:20:29.175Z,13.48
2018-05-18T21:22:56.664Z,13.44
2018-05-18T21:25:24.170Z,13.50
2018-05-18T21:27:51.711Z,13.49
2018-05-18T21:30:19.226Z,13.42
2018-05-18T21:32:46.726Z,13.30
2018-05-18T21:35:14.497Z,13.29
2018-05-18T21:37:42.037Z,13.28
2018-05-18T21:40:09.542Z,13.28
2018-05-18T21:42:37.051Z,13.22
2018-05-18T21:45:04.581Z,13.16
2018-05-18T21:47:32.095Z,13.08
2018-05-18T21:49:59.628Z,13.03
2018-05-18T21:52:27.115Z,13.02
2018-05-18T21:54:54.624Z,12.85
2018-05-18T21:57:22.272Z,12.93
2018-05-18T21:59:49.769Z,12.89
2018-05-18T22:02:17.253Z,12.89
2018-05-18T22:04:44.763Z,12.79
2018-05-18T22:07:12.248Z,12.70
2018-05-18T22:09:39.787Z,12.70
2018-05-18T22:12:07.360Z,12.68
2018-05-18T22:14:34.870Z,12.61
2018-05-18T22:17:02.362Z,12.55
2018-05-18T22:19:29.874Z,12.61
2018-05-18T22:21:57.390Z,12.61
2018-05-18T22:24:24.972Z,12.65
2018-05-18T22:26:52.492Z,12.61
2018-05-18T22:29:20.052Z,12.54
2018-05-18T22:31:47.545Z,12.55
2018-05-18T22:34:15.052Z,12.51
2018-05-18T22:36:42.528Z,12.44
2018-05-18T22:39:10.040Z,12.40
2018-05-18T22:41:37.572Z,12.29
2018-05-18T22:44:05.084Z,12.28
2018-05-18T22:46:32.591Z,12.24
2018-05-18T22:49:00.088Z,12.19
2018-05-18T22:51:27.596Z,12.20
2018-05-18T22:53:55.136Z,12.12
2018-05-18T22:56:22.657Z,12.11
2018-05-18T22:58:50.153Z,12.12
2018-05-18T23:01:17.655Z,12.09
2018-05-18T23:03:45.140Z,12.07
2018-05-18T23:06:12.633Z,12.11
2018-05-18T23:08:40.134Z,12.05
2018-05-18T23:11:07.671Z,12.08
2018-05-18T23:13:35.147Z,12.10
2018-05-18T23:16:02.660Z,12.12
2018-05-18T23:18:30.213Z,12.15
2018-05-18T23:20:57.704Z,12.13
2018-05-18T23:23:25.204Z,12.13
2018-05-18T23:25:52.872Z,12.16
2018-05-18T23:28:20.298Z,12.16
2018-05-18T23:30:47.805Z,12.23
2018-05-18T23:33:15.310Z,12.19
2018-05-18T23:35:42.853Z,12.08
2018-05-18T23:38:10.372Z,12.08
2018-05-18T23:40:37.885Z,12.13
2018-05-18T23:43:05.478Z,12.18
2018-05-18T23:45:33.014Z,12.19
2018-05-18T23:48:00.540Z,12.26
2018-05-18T23:50:28.020Z,12.23
2018-05-18T23:52:55.672Z,12.20
2018-05-18T23:55:23.192Z,12.17
2018-05-18T23:57:50.793Z,12.13
